createdAt,value
2023-05-03T00:00:16.281Z,7.10
2023-05-03T00:02:44.936Z,7.10
2023-05-03T00:05:14.522Z,7.10
2023-05-03T00:07:45.590Z,7.00
2023-05-03T00:10:15.666Z,7.00
2023-05-03T00:12:43.989Z,7.00
2023-05-03T00:15:11.518Z,6.90
2023-05-03T00:17:38.819Z,6.90
2023-05-03T00:20:07.836Z,6.90
2023-05-03T00:22:35.399Z,6.80
2023-05-03T00:25:02.944Z,6.80
2023-05-03T00:27:30.216Z,6.70
2023-05-03T00:29:57.559Z,6.70
2023-05-03T00:32:24.851Z,6.70
2023-05-03T00:34:58.221Z,6.70
2023-05-03T00:37:25.698Z,6.60
2023-05-03T00:39:53.434Z,6.60
2023-05-03T00:42:20.774Z,6.60
2023-05-03T00:44:48.140Z,6.60
2023-05-03T00:47:16.747Z,6.60
2023-05-03T00:49:44.721Z,6.60
2023-05-03T00:52:12.115Z,6.60
2023-05-03T00:54:40.121Z,6.60
2023-05-03T00:57:07.885Z,6.60
2023-05-03T00:59:35.139Z,6.60
2023-05-03T01:02:02.446Z,6.50
2023-05-03T01:04:29.986Z,6.60
2023-05-03T01:07:16.055Z,6.60
2023-05-03T01:09:59.765Z,6.60
2023-05-03T01:12:36.839Z,6.60
2023-05-03T01:15:14.181Z,6.50
2023-05-03T01:17:56.199Z,6.40
2023-05-03T01:20:28.307Z,6.30
2023-05-03T01:23:14.903Z,6.30
2023-05-03T01:25:42.297Z,6.40
2023-05-03T01:28:09.497Z,6.40
2023-05-03T01:30:38.127Z,6.40
2023-05-03T01:33:26.071Z,6.40
2023-05-03T01:36:02.213Z,6.40
2023-05-03T01:38:36.096Z,6.50
2023-05-03T01:41:09.592Z,6.50
2023-05-03T01:43:38.016Z,6.60
2023-05-03T01:46:05.549Z,6.70
2023-05-03T01:48:32.896Z,6.70
2023-05-03T01:51:00.282Z,6.70
2023-05-03T01:53:27.495Z,6.80
2023-05-03T01:55:54.723Z,6.80
2023-05-03T01:58:22.016Z,6.80
2023-05-03T02:00:49.598Z,6.80
2023-05-03T02:03:16.785Z,6.90
2023-05-03T02:05:46.435Z,6.90
2023-05-03T02:08:13.593Z,7.00
2023-05-03T02:10:44.171Z,7.10
2023-05-03T02:13:11.343Z,7.10
2023-05-03T02:15:38.491Z,7.20
2023-05-03T02:18:05.756Z,7.20
2023-05-03T02:20:37.607Z,7.20
2023-05-03T02:23:04.985Z,7.20
2023-05-03T02:25:32.298Z,7.30
2023-05-03T02:27:59.611Z,7.30
2023-05-03T02:30:26.905Z,7.30
2023-05-03T02:32:54.259Z,7.20
2023-05-03T02:35:21.760Z,7.20
2023-05-03T02:37:49.097Z,7.20
2023-05-03T02:40:17.261Z,7.20
2023-05-03T02:42:46.936Z,7.30
2023-05-03T02:45:17.399Z,7.30
2023-05-03T02:47:44.694Z,7.30
2023-05-03T02:50:12.037Z,7.30
2023-05-03T02:52:41.024Z,7.30
2023-05-03T02:55:08.909Z,7.20
2023-05-03T02:57:36.858Z,7.30
2023-05-03T03:00:06.806Z,7.30
2023-05-03T03:02:34.387Z,7.40
2023-05-03T03:05:01.726Z,7.40
2023-05-03T03:07:29.535Z,7.40
2023-05-03T03:09:58.596Z,7.40
2023-05-03T03:12:27.693Z,7.40
2023-05-03T03:14:55.269Z,7.40
2023-05-03T03:17:22.735Z,7.40
2023-05-03T03:19:50.004Z,7.40
2023-05-03T03:22:17.226Z,7.40
2023-05-03T03:24:45.204Z,7.40
2023-05-03T03:27:12.371Z,7.40
2023-05-03T03:29:40.074Z,7.40
2023-05-03T03:32:08.767Z,7.30
2023-05-03T03:34:37.013Z,7.40
2023-05-03T03:37:05.376Z,7.40
2023-05-03T03:39:33.186Z,7.40
2023-05-03T03:42:00.514Z,7.40
2023-05-03T03:44:28.168Z,7.40
2023-05-03T03:46:55.733Z,7.40
2023-05-03T03:49:23.407Z,7.40
2023-05-03T03:51:51.201Z,7.40
2023-05-03T03:54:18.401Z,7.40
2023-05-03T03:56:49.362Z,7.40
2023-05-03T03:59:16.510Z,7.40
2023-05-03T04:01:45.100Z,7.40
2023-05-03T04:04:12.776Z,7.40
2023-05-03T04:06:40.997Z,7.40
2023-05-03T04:09:12.312Z,7.40
2023-05-03T04:11:40.546Z,7.40
2023-05-03T04:14:08.518Z,7.40
2023-05-03T04:16:36.090Z,7.40
2023-05-03T04:19:04.779Z,7.40
2023-05-03T04:21:34.603Z,7.50
2023-05-03T04:24:04.684Z,7.40
2023-05-03T04:26:33.367Z,7.40
2023-05-03T04:29:11.568Z,7.50
2023-05-03T04:31:39.951Z,7.60
2023-05-03T04:34:07.775Z,7.60
2023-05-03T04:36:35.883Z,7.60
2023-05-03T04:39:03.679Z,7.70
2023-05-03T04:41:32.196Z,7.70
2023-05-03T04:43:59.808Z,7.80
2023-05-03T04:46:27.717Z,7.80
2023-05-03T04:48:56.368Z,7.90
2023-05-03T04:51:24.028Z,8.00
2023-05-03T04:53:53.025Z,8.10
2023-05-03T04:56:26.113Z,8.20
2023-05-03T04:58:58.422Z,8.30
2023-05-03T05:01:28.243Z,8.30
2023-05-03T05:03:59.764Z,8.40
2023-05-03T05:06:34.314Z,8.50
2023-05-03T05:09:02.823Z,8.50
2023-05-03T05:11:31.124Z,8.60
2023-05-03T05:13:58.633Z,8.70
2023-05-03T05:16:26.713Z,8.70
2023-05-03T05:18:54.436Z,8.80
2023-05-03T05:21:25.571Z,8.90
2023-05-03T05:23:53.473Z,9.00
2023-05-03T05:26:21.100Z,8.90
2023-05-03T05:28:49.926Z,9.00
2023-05-03T05:31:17.306Z,8.90
2023-05-03T05:33:44.662Z,9.10
2023-05-03T05:36:12.676Z,9.30
2023-05-03T05:38:46.943Z,9.40
2023-05-03T05:51:27.916Z,9.60
2023-05-03T05:53:55.596Z,9.70
2023-05-03T05:56:24.295Z,9.60
2023-05-03T05:58:51.685Z,9.60
2023-05-03T06:01:21.272Z,9.50
2023-05-03T06:03:49.015Z,9.40
2023-05-03T06:06:16.344Z,9.40
2023-05-03T06:08:43.619Z,9.50
2023-05-03T06:11:14.482Z,9.30
2023-05-03T06:13:42.262Z,9.30
2023-05-03T06:16:11.708Z,9.40
2023-05-03T06:18:39.144Z,9.30
2023-05-03T06:21:07.610Z,9.20
2023-05-03T06:23:35.317Z,9.20
2023-05-03T06:26:03.979Z,9.30
2023-05-03T06:28:31.209Z,9.30
2023-05-03T06:30:58.579Z,9.30
2023-05-03T06:33:28.488Z,9.40
2023-05-03T06:35:56.475Z,9.40
2023-05-03T06:38:23.786Z,9.50
2023-05-03T06:40:51.283Z,9.60
2023-05-03T06:43:18.544Z,9.70
2023-05-03T06:45:53.674Z,9.80
2023-05-03T06:48:22.043Z,9.80
2023-05-03T06:50:49.663Z,9.70
2023-05-03T06:53:16.851Z,9.60
2023-05-03T06:55:46.041Z,9.70
2023-05-03T06:58:13.553Z,9.60
2023-05-03T07:00:41.378Z,9.60
2023-05-03T07:03:08.713Z,9.40
2023-05-03T07:05:36.347Z,10.20
2023-05-03T07:08:03.904Z,9.40
2023-05-03T07:10:31.627Z,9.40
2023-05-03T07:12:58.972Z,9.50
2023-05-03T07:15:26.237Z,9.30
2023-05-03T07:17:53.446Z,9.10
2023-05-03T07:20:21.076Z,9.20
2023-05-03T07:22:48.491Z,9.30
2023-05-03T07:25:17.788Z,9.30
2023-05-03T07:27:45.592Z,9.40
2023-05-03T07:30:13.236Z,9.40
2023-05-03T07:32:40.688Z,9.40
2023-05-03T07:35:08.477Z,9.50
2023-05-03T07:37:35.657Z,9.70
2023-05-03T07:40:04.852Z,9.80
2023-05-03T07:42:32.347Z,9.80
2023-05-03T07:45:00.283Z,9.90
2023-05-03T07:47:27.939Z,10.00
2023-05-03T07:49:55.374Z,10.10
2023-05-03T07:52:22.660Z,10.40
2023-05-03T07:54:50.025Z,10.50
2023-05-03T07:57:17.378Z,10.70
2023-05-03T07:59:44.657Z,10.90
2023-05-03T08:02:12.117Z,11.00
2023-05-03T08:04:39.936Z,11.10
2023-05-03T08:07:07.467Z,11.10
2023-05-03T08:09:34.655Z,11.00
2023-05-03T08:12:03.045Z,10.90
2023-05-03T08:14:30.401Z,11.00
2023-05-03T08:16:57.561Z,11.10
2023-05-03T08:19:24.786Z,11.20
2023-05-03T08:21:54.632Z,11.20
2023-05-03T08:24:21.903Z,11.40
2023-05-03T08:26:50.764Z,11.30
2023-05-03T08:29:18.268Z,11.40
2023-05-03T08:31:45.594Z,11.60
2023-05-03T08:34:13.211Z,11.60
2023-05-03T08:36:40.492Z,11.70
2023-05-03T08:39:07.938Z,11.90
2023-05-03T08:41:35.807Z,12.00
2023-05-03T08:44:04.613Z,12.00
2023-05-03T08:46:32.183Z,12.20
2023-05-03T08:49:01.030Z,12.30
2023-05-03T08:51:28.887Z,12.40
2023-05-03T08:53:56.347Z,12.50
2023-05-03T08:56:34.708Z,12.60
2023-05-03T08:59:07.468Z,12.60
2023-05-03T09:01:41.975Z,12.70
2023-05-03T09:04:11.631Z,12.90
2023-05-03T09:06:39.666Z,13.10
2023-05-03T09:09:08.519Z,13.30
2023-05-03T09:11:38.829Z,13.50
2023-05-03T09:14:12.421Z,13.60
2023-05-03T09:16:41.194Z,13.50
2023-05-03T09:19:11.564Z,13.70
2023-05-03T09:21:40.156Z,13.90
2023-05-03T09:24:16.260Z,14.10
2023-05-03T09:26:45.481Z,14.10
2023-05-03T09:29:31.581Z,14.00
2023-05-03T09:32:01.507Z,14.30
2023-05-03T09:34:28.857Z,14.40
2023-05-03T09:36:56.507Z,14.80
2023-05-03T09:39:24.017Z,14.80
2023-05-03T09:41:52.937Z,14.70
2023-05-03T09:44:20.284Z,14.70
2023-05-03T09:47:04.620Z,14.60
2023-05-03T09:49:33.008Z,14.30
2023-05-03T09:52:01.466Z,14.60
2023-05-03T09:54:31.452Z,14.70
2023-05-03T09:56:59.320Z,15.00
2023-05-03T09:59:26.655Z,15.10
2023-05-03T10:01:58.880Z,15.30
2023-05-03T10:04:28.054Z,15.30
2023-05-03T10:07:00.866Z,15.20
2023-05-03T10:09:44.645Z,15.20
2023-05-03T10:12:13.426Z,14.90
2023-05-03T10:14:43.176Z,15.00
2023-05-03T10:17:42.919Z,15.00
2023-05-03T10:20:30.964Z,14.90
2023-05-03T10:23:04.368Z,14.70
2023-05-03T10:25:32.943Z,14.90
2023-05-03T10:28:09.493Z,15.00
2023-05-03T10:30:38.730Z,15.20
2023-05-03T10:33:17.909Z,15.10
2023-05-03T10:35:53.280Z,15.20
2023-05-03T10:38:25.030Z,15.10
2023-05-03T10:40:55.202Z,15.20
2023-05-03T10:43:31.584Z,15.10
2023-05-03T10:45:59.827Z,15.10
2023-05-03T10:48:28.546Z,15.10
2023-05-03T10:50:57.671Z,15.20
2023-05-03T10:53:35.755Z,15.30
2023-05-03T10:56:15.437Z,15.20
2023-05-03T10:58:48.694Z,14.90
2023-05-03T11:01:18.468Z,14.80
2023-05-03T11:03:49.527Z,14.80
2023-05-03T11:06:34.700Z,15.00
2023-05-03T11:09:06.956Z,15.10
2023-05-03T11:11:37.420Z,15.20
2023-05-03T11:14:05.947Z,15.40
2023-05-03T11:16:33.372Z,15.50
2023-05-03T11:19:02.903Z,15.70
2023-05-03T11:21:31.000Z,15.60
2023-05-03T11:23:59.766Z,15.70
2023-05-03T11:26:27.489Z,15.70
2023-05-03T11:28:55.372Z,15.50
2023-05-03T11:31:23.017Z,15.70
2023-05-03T11:33:51.201Z,15.70
2023-05-03T11:36:18.403Z,15.70
2023-05-03T11:38:46.073Z,15.70
2023-05-03T11:41:16.414Z,15.70
2023-05-03T11:43:45.290Z,15.50
2023-05-03T11:46:18.917Z,15.60
2023-05-03T11:48:46.282Z,15.80
2023-05-03T11:51:14.118Z,16.00
2023-05-03T11:53:43.984Z,16.20
2023-05-03T11:56:15.276Z,16.10
2023-05-03T11:58:57.467Z,16.30
2023-05-03T12:01:27.890Z,15.90
2023-05-03T12:04:02.398Z,15.80
2023-05-03T12:06:34.081Z,16.10
2023-05-03T12:09:04.526Z,16.10
2023-05-03T12:11:42.152Z,16.30
2023-05-03T12:14:10.851Z,16.40
2023-05-03T12:16:52.792Z,16.60
2023-05-03T12:19:33.421Z,16.80
2023-05-03T12:22:17.945Z,16.90
2023-05-03T12:24:53.390Z,16.90
2023-05-03T12:27:23.486Z,16.80
2023-05-03T12:29:51.871Z,16.80
2023-05-03T12:32:21.512Z,16.80
2023-05-03T12:34:51.941Z,16.70
2023-05-03T12:37:22.195Z,16.70
2023-05-03T12:39:58.453Z,16.80
2023-05-03T12:42:37.192Z,17.00
2023-05-03T12:45:05.962Z,17.00
2023-05-03T12:47:36.205Z,17.00
2023-05-03T12:50:06.336Z,17.00
2023-05-03T12:52:38.029Z,17.20
2023-05-03T12:55:11.249Z,17.20
2023-05-03T12:57:39.423Z,17.50
2023-05-03T13:00:14.671Z,17.40
2023-05-03T13:03:21.021Z,17.20
2023-05-03T13:10:30.106Z,17.30
2023-05-03T13:12:57.323Z,17.40
2023-05-03T13:15:25.228Z,17.40
2023-05-03T13:17:52.767Z,17.60
2023-05-03T13:20:20.727Z,17.80
2023-05-03T13:22:51.116Z,17.80
2023-05-03T13:25:18.373Z,18.00
2023-05-03T13:27:48.814Z,18.00
2023-05-03T13:30:16.381Z,18.00
2023-05-03T13:32:43.660Z,18.00
2023-05-03T13:35:10.915Z,17.70
2023-05-03T13:37:38.607Z,17.50
2023-05-03T13:40:06.803Z,17.30
2023-05-03T13:42:35.069Z,17.00
2023-05-03T13:45:03.756Z,16.90
2023-05-03T13:47:47.266Z,16.90
2023-05-03T13:50:18.860Z,17.20
2023-05-03T13:52:46.090Z,17.30
2023-05-03T13:55:13.289Z,17.60
2023-05-03T13:57:41.125Z,17.80
2023-05-03T14:00:10.198Z,18.00
2023-05-03T14:02:37.426Z,18.00
2023-05-03T14:05:06.941Z,18.00
2023-05-03T14:07:34.152Z,17.90
2023-05-03T14:10:02.335Z,17.80
2023-05-03T14:12:29.873Z,17.60
2023-05-03T14:14:57.437Z,17.60
2023-05-03T14:17:24.633Z,17.70
2023-05-03T14:19:52.250Z,17.80
2023-05-03T14:22:19.550Z,17.80
2023-05-03T14:24:46.836Z,17.80
2023-05-03T14:27:14.269Z,17.90
2023-05-03T14:29:41.849Z,17.80
2023-05-03T14:32:09.993Z,18.10
2023-05-03T14:34:38.044Z,18.10
2023-05-03T14:37:05.217Z,18.40
2023-05-03T14:39:32.467Z,18.60
2023-05-03T14:41:59.624Z,18.40
2023-05-03T14:44:26.989Z,18.40
2023-05-03T14:46:58.480Z,18.50
2023-05-03T14:49:25.910Z,18.60
2023-05-03T14:51:53.219Z,18.80
2023-05-03T14:54:20.615Z,18.60
2023-05-03T14:56:48.228Z,18.60
2023-05-03T14:59:15.949Z,18.40
2023-05-03T15:01:43.181Z,18.20
2023-05-03T15:04:10.830Z,18.00
2023-05-03T15:06:39.532Z,17.80
2023-05-03T15:09:08.518Z,17.70
2023-05-03T15:11:35.824Z,17.50
2023-05-03T15:14:03.572Z,17.40
2023-05-03T15:16:30.929Z,17.50
2023-05-03T15:18:58.201Z,17.50
2023-05-03T15:21:25.437Z,17.50
2023-05-03T15:23:53.798Z,17.60
2023-05-03T15:26:24.394Z,17.60
2023-05-03T15:28:52.223Z,17.60
2023-05-03T15:31:19.564Z,17.70
2023-05-03T15:33:46.917Z,17.70
2023-05-03T15:36:15.622Z,17.70
2023-05-03T15:38:42.819Z,17.60
2023-05-03T15:41:10.052Z,17.50
2023-05-03T15:43:37.452Z,17.60
2023-05-03T15:46:05.398Z,17.50
2023-05-03T15:48:32.907Z,17.40
2023-05-03T15:51:00.361Z,17.40
2023-05-03T15:53:27.637Z,17.60
2023-05-03T15:55:57.348Z,17.60
2023-05-03T15:58:25.801Z,17.80
2023-05-03T16:00:54.169Z,17.90
2023-05-03T16:03:21.710Z,18.10
2023-05-03T16:05:49.562Z,18.30
2023-05-03T16:08:16.837Z,18.40
2023-05-03T16:10:44.056Z,18.40
2023-05-03T16:13:11.629Z,18.30
2023-05-03T16:15:39.009Z,18.40
2023-05-03T16:18:06.248Z,18.40
2023-05-03T16:20:33.615Z,18.40
2023-05-03T16:23:00.830Z,18.30
2023-05-03T16:25:29.359Z,18.20
2023-05-03T16:27:57.641Z,18.10
2023-05-03T16:30:24.891Z,17.90
2023-05-03T16:32:52.312Z,17.70
2023-05-03T16:35:20.173Z,17.70
2023-05-03T16:37:47.380Z,17.60
2023-05-03T16:40:14.982Z,17.60
2023-05-03T16:42:42.719Z,17.70
2023-05-03T16:45:16.753Z,17.80
2023-05-03T16:47:46.867Z,17.80
2023-05-03T16:50:14.274Z,18.10
2023-05-03T16:52:43.384Z,18.30
2023-05-03T16:55:11.707Z,18.50
2023-05-03T16:57:39.940Z,18.60
2023-05-03T17:00:09.281Z,18.60
2023-05-03T17:02:41.353Z,18.70
2023-05-03T17:05:10.364Z,18.80
2023-05-03T17:07:38.188Z,19.10
2023-05-03T17:10:06.673Z,19.20
2023-05-03T17:12:34.494Z,19.50
2023-05-03T17:15:01.903Z,19.80
2023-05-03T17:17:30.974Z,20.00
2023-05-03T17:19:58.256Z,20.00
2023-05-03T17:22:25.507Z,20.10
2023-05-03T17:24:55.396Z,20.20
2023-05-03T17:27:24.207Z,20.30
2023-05-03T17:29:51.585Z,20.30
2023-05-03T17:32:19.140Z,20.30
2023-05-03T17:34:46.409Z,20.40
2023-05-03T17:37:14.075Z,20.40
2023-05-03T17:39:41.468Z,20.20
2023-05-03T17:42:09.222Z,20.00
2023-05-03T17:44:36.395Z,20.10
2023-05-03T17:47:04.471Z,20.00
2023-05-03T17:49:34.488Z,19.90
2023-05-03T17:52:03.506Z,19.70
2023-05-03T17:54:30.869Z,19.40
2023-05-03T17:56:58.737Z,19.10
2023-05-03T17:59:25.937Z,18.80
2023-05-03T18:01:53.183Z,18.50
2023-05-03T18:04:20.429Z,18.20
2023-05-03T18:06:47.628Z,17.90
2023-05-03T18:09:14.850Z,17.50
2023-05-03T18:11:44.957Z,17.30
2023-05-03T18:14:12.308Z,17.10
2023-05-03T18:16:39.833Z,16.90
2023-05-03T18:19:07.646Z,16.70
2023-05-03T18:21:35.450Z,16.40
2023-05-03T18:24:03.265Z,16.30
2023-05-03T18:26:30.433Z,16.10
2023-05-03T18:28:57.821Z,16.00
2023-05-03T18:31:25.404Z,15.80
2023-05-03T18:33:52.646Z,15.70
2023-05-03T18:36:21.953Z,15.60
2023-05-03T18:38:53.017Z,15.40
2023-05-03T18:41:20.228Z,15.20
2023-05-03T18:43:49.651Z,15.10
2023-05-03T18:46:18.782Z,15.00
2023-05-03T18:48:47.783Z,14.80
2023-05-03T18:51:15.466Z,14.80
2023-05-03T18:53:43.539Z,14.60
2023-05-03T18:56:10.781Z,14.50
2023-05-03T18:58:38.228Z,14.40
2023-05-03T19:01:05.667Z,14.30
2023-05-03T19:03:33.449Z,14.20
2023-05-03T19:06:07.184Z,14.10
2023-05-03T19:08:34.650Z,14.00
2023-05-03T19:11:09.138Z,14.00
2023-05-03T19:13:37.898Z,13.90
2023-05-03T19:16:05.552Z,13.80
2023-05-03T19:18:32.928Z,13.80
2023-05-03T19:21:00.179Z,13.70
2023-05-03T19:23:27.371Z,13.70
2023-05-03T19:25:54.605Z,13.70
2023-05-03T19:28:22.013Z,13.50
2023-05-03T19:30:52.597Z,13.40
2023-05-03T19:33:21.105Z,13.30
2023-05-03T19:35:48.330Z,13.30
2023-05-03T19:38:15.550Z,13.10
2023-05-03T19:40:58.480Z,13.10
2023-05-03T19:43:26.036Z,13.00
2023-05-03T19:45:53.331Z,12.90
2023-05-03T19:48:20.510Z,12.90
2023-05-03T19:50:47.820Z,12.90
2023-05-03T19:53:15.036Z,12.80
2023-05-03T19:55:42.510Z,12.80
2023-05-03T19:58:09.772Z,12.70
2023-05-03T20:00:36.917Z,12.70
2023-05-03T20:03:04.612Z,12.60
2023-05-03T20:05:31.879Z,12.60
2023-05-03T20:07:59.156Z,12.60
2023-05-03T20:10:27.183Z,12.50
2023-05-03T20:12:54.423Z,12.50
2023-05-03T20:15:21.635Z,12.50
2023-05-03T20:17:48.839Z,12.40
2023-05-03T20:20:16.354Z,12.30
2023-05-03T20:22:43.522Z,12.30
2023-05-03T20:25:10.766Z,12.30
2023-05-03T20:27:37.910Z,12.30
2023-05-03T20:30:06.402Z,12.20
2023-05-03T20:32:36.308Z,12.20
2023-05-03T20:35:04.890Z,12.10
2023-05-03T20:37:32.705Z,12.10
2023-05-03T20:40:00.237Z,12.00
2023-05-03T20:42:27.423Z,12.00
2023-05-03T20:44:58.529Z,12.00
2023-05-03T20:47:26.372Z,12.00
2023-05-03T20:49:53.521Z,11.90
2023-05-03T20:52:21.144Z,11.80
2023-05-03T20:54:48.519Z,11.80
2023-05-03T20:57:16.946Z,11.80
2023-05-03T20:59:44.928Z,11.80
2023-05-03T21:02:12.650Z,11.70
2023-05-03T21:04:40.138Z,11.70
2023-05-03T21:07:07.444Z,11.70
2023-05-03T21:09:34.837Z,11.70
2023-05-03T21:12:02.230Z,11.60
2023-05-03T21:14:30.001Z,11.60
2023-05-03T21:16:57.256Z,11.50
2023-05-03T21:19:24.742Z,11.50
2023-05-03T21:21:52.125Z,11.50
2023-05-03T21:24:19.435Z,11.50
2023-05-03T21:26:46.574Z,11.40
2023-05-03T21:29:13.858Z,11.40
2023-05-03T21:31:41.163Z,11.20
2023-05-03T21:34:08.713Z,11.30
2023-05-03T21:36:35.911Z,11.30
2023-05-03T21:39:04.108Z,11.40
2023-05-03T21:41:31.392Z,11.20
2023-05-03T21:43:58.570Z,11.10
2023-05-03T21:46:26.239Z,11.10
2023-05-03T21:48:53.667Z,11.00
2023-05-03T21:51:23.211Z,10.90
2023-05-03T21:53:50.525Z,11.00
2023-05-03T21:56:17.739Z,10.90
2023-05-03T21:58:45.336Z,10.90
2023-05-03T22:01:16.549Z,10.80
2023-05-03T22:03:44.360Z,10.70
2023-05-03T22:06:11.806Z,10.70
2023-05-03T22:08:38.996Z,10.70
2023-05-03T22:11:07.079Z,10.80
2023-05-03T22:13:41.378Z,10.70
2023-05-03T22:16:14.470Z,10.70
2023-05-03T22:18:41.675Z,10.60
2023-05-03T22:21:09.291Z,10.70
2023-05-03T22:23:36.537Z,10.50
2023-05-03T22:26:03.745Z,10.50
2023-05-03T22:28:30.945Z,10.40
2023-05-03T22:30:58.225Z,10.50
2023-05-03T22:33:25.781Z,10.30
2023-05-03T22:35:53.586Z,10.30
2023-05-03T22:38:20.793Z,10.30
2023-05-03T22:40:48.270Z,10.20
2023-05-03T22:43:16.121Z,10.10
2023-05-03T22:45:43.444Z,10.10
2023-05-03T22:48:10.741Z,10.00
2023-05-03T22:50:38.067Z,10.00
2023-05-03T22:53:05.419Z,9.90
2023-05-03T22:55:34.498Z,9.90
2023-05-03T22:58:01.936Z,9.80
2023-05-03T23:00:29.415Z,9.80
2023-05-03T23:02:56.770Z,9.70
2023-05-03T23:05:24.245Z,9.60
2023-05-03T23:07:55.175Z,9.60
2023-05-03T23:10:22.570Z,9.50
2023-05-03T23:12:51.456Z,9.50
2023-05-03T23:15:18.742Z,9.50
2023-05-03T23:17:46.535Z,9.40
2023-05-03T23:20:14.186Z,9.30
2023-05-03T23:22:42.211Z,9.30
2023-05-03T23:25:09.782Z,9.20
2023-05-03T23:27:36.980Z,9.10
2023-05-03T23:30:05.481Z,9.10
2023-05-03T23:32:33.431Z,9.10
2023-05-03T23:35:01.357Z,9.00
2023-05-03T23:37:28.797Z,9.00
2023-05-03T23:39:56.787Z,9.00
2023-05-03T23:42:26.745Z,8.90
2023-05-03T23:44:56.274Z,8.90
2023-05-03T23:47:23.823Z,8.80
2023-05-03T23:49:54.771Z,8.80
2023-05-03T23:52:22.083Z,8.80
2023-05-03T23:54:51.608Z,8.70
2023-05-03T23:57:22.754Z,8.70
2023-05-03T23:59:50.186Z,8.70
